Time;durP1;ratioP1;P1;durP2;ratioP2;P2;SDS_P1;SDS_P2;PMS_P1;PMS_P2;Temp;Humidity;BMP_temperature;BMP_pressure;BME280_temperature;BME280_humidity;BME280_pressure;Samples;Min_cycle;Max_cycle;Signal;HPM_P1;HPM_P2
2022/03/14 00:02:20;;;;;;;;;6.00;6.00;;;;;8.04;69.10;101153.38;5057995;28;45393;-69
2022/03/14 00:04:47;;;;;;;;;6.33;5.67;;;;;9.79;69.01;101437.59;5057390;28;45337;-69
2022/03/14 00:07:12;;;;;;;;;7.00;5.00;;;;;9.71;69.35;101435.56;5056716;28;45840;-69
2022/03/14 00:09:37;;;;;;;;;4.00;4.00;;;;;9.85;68.80;101448.59;5058196;28;45566;-68
2022/03/14 00:12:05;;;;;;;;;6.67;6.00;;;;;9.86;69.18;101444.97;5055807;28;45382;-68
2022/03/14 00:14:31;;;;;;;;;6.00;5.00;;;;;9.82;68.50;101446.19;5047052;28;45218;-69
2022/03/14 00:16:56;;;;;;;;;5.67;5.67;;;;;9.86;68.49;101460.91;5035453;28;47883;-68
2022/03/14 00:19:22;;;;;;;;;5.33;5.33;;;;;9.74;68.50;101444.13;5041759;28;45497;-69
2022/03/14 00:21:49;;;;;;;;;5.00;5.00;;;;;9.85;68.08;101466.34;5037003;28;45414;-68
2022/03/14 00:24:14;;;;;;;;;5.33;4.33;;;;;9.67;68.09;101444.72;5039434;28;45446;-68
2022/03/14 00:26:40;;;;;;;;;5.00;5.00;;;;;9.88;67.93;101477.56;5037640;28;45249;-69
2022/03/14 00:29:06;;;;;;;;;10.00;5.00;;;;;9.69;67.91;101464.03;5055833;28;45826;-69
2022/03/14 00:31:32;;;;;;;;;6.00;4.67;;;;;9.79;67.77;101466.81;5058153;28;45343;-69
2022/03/14 00:33:57;;;;;;;;;3.00;2.00;;;;;9.78;67.55;101484.53;5057019;28;45558;-68
2022/03/14 00:36:25;;;;;;;;;3.00;3.00;;;;;9.81;67.50;101496.72;5056352;28;46916;-68
2022/03/14 00:38:51;;;;;;;;;6.00;5.67;;;;;9.43;67.57;101443.03;5058287;28;45167;-68
2022/03/14 00:41:16;;;;;;;;;6.00;4.67;;;;;9.66;67.80;101480.22;5057555;28;45256;-68
2022/03/14 00:43:42;;;;;;;;;5.00;5.00;;;;;9.84;67.57;101509.78;5058335;28;45390;-69
2022/03/14 00:46:08;;;;;;;;;5.00;3.00;;;;;9.96;67.64;101530.91;5048868;28;46138;-69
2022/03/14 00:48:35;;;;;;;;;7.67;6.00;;;;;9.72;67.12;101479.72;5037968;28;45503;-69
2022/03/14 00:51:02;;;;;;;;;3.00;3.00;;;;;9.95;66.94;101515.94;5050928;28;45495;-68
2022/03/14 00:53:28;;;;;;;;;4.00;4.00;;;;;9.96;67.38;101530.91;5057537;28;45444;-69
2022/03/14 00:55:53;;;;;;;;;4.00;4.00;;;;;9.98;67.02;101539.59;5051001;28;45740;-68
2022/03/14 00:58:18;;;;;;;;;4.00;4.00;;;;;9.72;67.02;101495.66;5036147;28;45328;-69
2022/03/14 01:00:44;;;;;;;;;4.00;4.00;;;;;9.78;67.02;101524.38;5044706;28;45185;-69
2022/03/14 01:03:10;;;;;;;;;3.00;3.00;;;;;9.88;66.65;101545.75;5037583;28;45260;-68
2022/03/14 01:05:35;;;;;;;;;5.00;3.00;;;;;9.90;66.68;101552.66;5032578;28;46865;-69
2022/03/14 01:08:01;;;;;;;;;4.67;3.33;;;;;9.89;66.46;101535.03;5017795;28;45328;-70
2022/03/14 01:10:26;;;;;;;;;3.00;3.00;;;;;9.97;66.31;101559.16;5020629;28;45497;-68
2022/03/14 01:12:52;;;;;;;;;4.67;2.67;;;;;10.09;66.31;101577.78;5047692;28;45590;-69
2022/03/14 01:15:18;;;;;;;;;7.33;3.00;;;;;10.06;66.46;101574.38;5041626;28;46188;-69
2022/03/14 01:17:44;;;;;;;;;5.00;5.00;;;;;9.91;66.30;101562.31;5039529;28;45352;-68
2022/03/14 01:20:10;;;;;;;;;3.33;3.33;;;;;10.03;66.63;101579.94;5053963;28;45290;-69
2022/03/14 01:22:36;;;;;;;;;3.67;3.67;;;;;9.66;66.30;101522.69;5056586;28;45512;-68
2022/03/14 01:25:03;;;;;;;;;3.00;3.00;;;;;10.03;66.58;101590.56;5056142;28;47676;-68
2022/03/14 01:27:28;;;;;;;;;4.00;3.67;;;;;9.95;66.47;101574.38;5037922;28;45852;-68
2022/03/14 01:29:55;;;;;;;;;4.33;3.00;;;;;9.97;66.21;101571.59;5037260;28;45354;-67
2022/03/14 01:32:21;;;;;;;;;5.00;3.67;;;;;10.02;66.34;101594.19;5053606;28;45567;-68
2022/03/14 01:34:46;;;;;;;;;4.00;3.00;;;;;9.89;66.65;101585.47;5057406;28;46387;-69
2022/03/14 01:37:12;;;;;;;;;4.33;3.33;;;;;9.96;66.28;101586.69;5056748;28;45408;-69
2022/03/14 01:39:37;;;;;;;;;3.00;3.00;;;;;10.17;65.82;101615.19;5056737;28;45448;-68
2022/03/14 01:42:03;;;;;;;;;5.00;2.33;;;;;9.73;65.54;101542.47;5056454;28;45353;-68
2022/03/14 01:44:30;;;;;;;;;4.33;3.00;;;;;9.87;65.42;101560.84;5056713;28;46406;-68
2022/03/14 01:46:56;;;;;;;;;4.33;1.67;;;;;10.07;65.31;101589.38;5040143;28;45853;-68
2022/03/14 01:49:22;;;;;;;;;6.33;2.33;;;;;10.15;65.31;101609.16;5053062;28;45283;-68
2022/03/14 01:51:52;;;;;;;;;5.67;3.33;;;;;10.00;65.22;101576.66;5055510;28;45399;-68
2022/03/14 01:54:18;;;;;;;;;5.00;3.33;;;;;10.15;64.90;101599.38;5057133;28;46414;-70
2022/03/14 01:56:44;;;;;;;;;2.00;2.00;;;;;10.11;65.10;101597.09;5042883;28;45541;-69
2022/03/14 01:59:09;;;;;;;;;2.00;2.00;;;;;10.14;64.86;101599.50;5050607;28;45469;-68
2022/03/14 02:01:35;;;;;;;;;5.00;3.00;;;;;10.22;65.08;101626.38;5055180;28;45540;-68
2022/03/14 02:04:02;;;;;;;;;3.33;3.33;;;;;10.02;65.31;101596.84;5056709;28;45647;-69
2022/03/14 02:06:28;;;;;;;;;3.00;3.00;;;;;10.13;64.91;101613.75;5045440;28;45232;-67
2022/03/14 02:08:54;;;;;;;;;3.33;3.33;;;;;10.20;65.04;101634.41;5036585;28;45257;-70
2022/03/14 02:11:20;;;;;;;;;2.00;2.00;;;;;10.17;65.16;101617.84;5041184;28;45526;-71
2022/03/14 02:13:45;;;;;;;;;2.00;2.00;;;;;10.21;65.43;101635.28;5045988;28;47399;-67
2022/03/14 02:16:11;;;;;;;;;3.67;2.67;;;;;9.17;65.04;101461.91;5053728;28;46300;-68
2022/03/14 02:18:36;;;;;;;;;4.00;3.00;;;;;9.84;65.44;101594.78;5047955;28;45313;-68
2022/03/14 02:21:02;;;;;;;;;5.00;4.33;;;;;10.04;65.30;101620.66;5050923;28;45631;-68
2022/03/14 02:23:28;;;;;;;;;5.33;3.00;;;;;10.11;65.34;101639.59;5056574;28;46208;-70
2022/03/14 02:25:55;;;;;;;;;4.00;3.00;;;;;10.12;65.51;101641.28;5044476;28;45320;-68
2022/03/14 02:28:22;;;;;;;;;3.00;2.00;;;;;10.09;65.25;101641.53;5056509;28;45431;-68
2022/03/14 02:30:52;;;;;;;;;3.33;2.33;;;;;10.06;65.30;101647.94;5054149;28;45554;-69
2022/03/14 02:33:17;;;;;;;;;6.00;3.67;;;;;10.00;65.29;101641.25;5056387;28;46042;-68
2022/03/14 02:35:43;;;;;;;;;2.67;2.67;;;;;9.68;65.86;101595.94;5045485;28;45464;-68
2022/03/14 02:38:14;;;;;;;;;5.00;3.67;;;;;9.69;65.62;101607.41;5036286;28;45387;-68
2022/03/14 02:40:46;;;;;;;;;3.00;3.00;;;;;9.62;65.93;101607.06;5042209;28;45475;-69
2022/03/14 02:43:15;;;;;;;;;4.33;3.33;;;;;9.80;65.92;101644.59;5059530;28;46563;-70
2022/03/14 02:45:41;;;;;;;;;5.00;3.67;;;;;9.81;65.83;101658.72;5053467;28;46208;-68
2022/03/14 02:48:07;;;;;;;;;4.00;3.67;;;;;9.76;66.30;101664.41;5036009;28;45514;-69
2022/03/14 02:50:35;;;;;;;;;3.00;3.00;;;;;9.60;66.62;101655.88;5058261;28;45438;-69
2022/03/14 02:53:00;;;;;;;;;5.00;3.67;;;;;9.65;66.60;101680.31;5058144;28;49030;-68
2022/03/14 02:55:26;;;;;;;;;6.00;4.00;;;;;9.62;66.95;101684.03;5057190;28;45513;-68
2022/03/14 02:57:51;;;;;;;;;3.00;3.00;;;;;9.58;67.12;101687.00;5038436;28;45386;-69
2022/03/14 03:00:17;;;;;;;;;8.00;5.67;;;;;9.46;67.24;101672.88;5042632;28;45450;-67
2022/03/14 03:02:42;;;;;;;;;4.00;4.00;;;;;9.54;67.15;101693.53;5057636;28;45372;-69
2022/03/14 03:05:09;;;;;;;;;7.00;4.67;;;;;9.32;66.99;101668.56;5057496;28;45260;-70
2022/03/14 03:07:36;;;;;;;;;5.33;5.00;;;;;9.40;67.32;101695.38;5045129;28;45486;-68
2022/03/14 03:10:03;;;;;;;;;3.67;2.33;;;;;9.40;67.57;101703.34;5039644;28;45243;-69
2022/03/14 03:12:32;;;;;;;;;4.00;3.33;;;;;8.84;67.31;101619.97;5048799;28;45943;-69
2022/03/14 03:14:58;;;;;;;;;5.00;3.00;;;;;9.31;67.46;101708.50;5038748;28;45929;-69
2022/03/14 03:17:24;;;;;;;;;5.00;3.33;;;;;9.42;67.08;101735.13;5039185;28;45324;-68
2022/03/14 03:19:49;;;;;;;;;3.00;2.00;;;;;9.37;67.75;101734.56;5046667;28;45758;-68
2022/03/14 03:22:15;;;;;;;;;2.67;2.67;;;;;8.69;67.33;101635.19;5057822;28;46673;-69
2022/03/14 03:24:40;;;;;;;;;4.33;4.00;;;;;9.52;67.27;101752.03;5059151;28;45271;-69
2022/03/14 03:27:06;;;;;;;;;3.00;3.00;;;;;9.56;66.77;101739.38;5055533;28;45605;-69
2022/03/14 03:29:31;;;;;;;;;4.33;3.33;;;;;9.63;66.44;101752.13;5058102;28;45470;-69
2022/03/14 03:31:56;;;;;;;;;6.00;4.00;;;;;9.60;66.53;101759.44;5056722;28;47973;-70
2022/03/14 03:34:22;;;;;;;;;4.00;3.00;;;;;9.52;66.70;101749.38;5055554;28;45377;-68
2022/03/14 03:36:47;;;;;;;;;6.00;2.00;;;;;9.43;66.60;101744.75;5045137;28;45453;-69
2022/03/14 03:39:12;;;;;;;;;3.67;2.67;;;;;9.14;66.38;101691.16;5043758;28;46640;-68
2022/03/14 03:41:38;;;;;;;;;4.67;3.33;;;;;9.54;66.60;101778.47;5057576;28;47782;-69
2022/03/14 03:44:04;;;;;;;;;5.33;3.33;;;;;9.24;66.59;101732.00;5058470;28;45322;-69
2022/03/14 03:46:30;;;;;;;;;4.33;3.33;;;;;9.47;67.12;101787.84;5059042;28;45321;-68
2022/03/14 03:48:55;;;;;;;;;4.00;4.00;;;;;9.38;67.09;101792.84;5047078;28;45369;-68
2022/03/14 03:51:21;;;;;;;;;7.00;4.00;;;;;9.27;66.80;101782.19;5052866;28;47838;-68
2022/03/14 03:53:46;;;;;;;;;5.67;5.00;;;;;9.25;66.72;101773.47;5038801;28;45359;-69
2022/03/14 03:56:12;;;;;;;;;3.33;2.00;;;;;9.09;66.58;101751.66;5038497;28;45554;-69
2022/03/14 03:58:37;;;;;;;;;7.00;6.00;;;;;9.28;67.21;101789.19;5038852;28;45170;-69
2022/03/14 04:01:02;;;;;;;;;4.00;3.00;;;;;9.15;67.20;101783.03;5038317;28;46449;-68
2022/03/14 04:03:28;;;;;;;;;4.00;3.67;;;;;9.04;67.28;101781.16;5042741;28;45545;-69
2022/03/14 04:05:54;;;;;;;;;5.33;3.67;;;;;8.91;66.79;101768.88;5058785;28;45287;-69
2022/03/14 04:08:19;;;;;;;;;4.00;4.00;;;;;8.34;67.36;101695.09;5047133;28;45287;-68
2022/03/14 04:10:53;;;;;;;;;5.67;4.00;;;;;8.82;67.67;101795.09;5038253;28;46323;-68
2022/03/14 04:13:21;;;;;;;;;3.67;3.67;;;;;9.00;67.67;101826.56;5042866;28;45386;-67
2022/03/14 04:15:51;;;;;;;;;5.00;4.33;;;;;8.91;67.60;101821.91;5053984;28;45577;-68
2022/03/14 04:18:18;;;;;;;;;7.00;3.00;;;;;8.66;67.55;101785.66;5058490;28;45485;-69
2022/03/14 04:20:45;;;;;;;;;5.67;5.67;;;;;8.89;67.11;101829.13;5051864;28;45528;-69
2022/03/14 04:23:11;;;;;;;;;4.00;4.00;;;;;8.76;67.34;101814.06;5058185;28;45286;-68
2022/03/14 04:25:36;;;;;;;;;6.00;4.33;;;;;8.86;67.40;101838.16;5073509;28;45383;-68
2022/03/14 04:28:02;;;;;;;;;5.67;5.00;;;;;8.64;67.58;101806.97;5056954;28;45388;-69
2022/03/14 04:30:27;;;;;;;;;4.00;4.00;;;;;8.20;67.42;101741.06;5053018;28;46313;-68
2022/03/14 04:32:53;;;;;;;;;4.00;4.00;;;;;8.63;67.37;101823.81;5046681;28;45465;-70
2022/03/14 04:35:18;;;;;;;;;4.33;4.33;;;;;8.62;67.63;101831.88;5056299;28;45331;-69
2022/03/14 04:37:44;;;;;;;;;4.67;4.00;;;;;8.73;67.61;101851.38;5038495;28;46377;-70
2022/03/14 04:40:11;;;;;;;;;7.00;5.00;;;;;8.68;67.62;101853.50;5018120;28;45757;-68
2022/03/14 04:42:37;;;;;;;;;5.67;5.67;;;;;8.58;67.50;101841.81;5031105;28;45447;-70
2022/03/14 04:45:04;;;;;;;;;3.67;3.00;;;;;8.04;67.32;101757.16;5037977;28;45256;-68
2022/03/14 04:47:29;;;;;;;;;4.00;4.00;;;;;8.62;67.29;101853.09;5037764;28;45222;-70
2022/03/14 04:49:54;;;;;;;;;9.33;6.00;;;;;8.61;67.40;101867.28;5037465;28;45739;-69
2022/03/14 04:52:21;;;;;;;;;6.33;4.67;;;;;8.47;67.83;101847.88;5037671;28;45395;-68
2022/03/14 04:54:47;;;;;;;;;6.67;5.67;;;;;8.56;67.47;101854.34;5042049;28;45354;-69
2022/03/14 04:57:13;;;;;;;;;6.67;5.67;;;;;8.53;67.43;101854.53;5043405;28;45441;-69
2022/03/14 04:59:38;;;;;;;;;3.00;2.00;;;;;8.62;67.15;101867.19;5035922;28;47233;-69
2022/03/14 05:02:04;;;;;;;;;4.33;4.33;;;;;8.75;67.02;101891.91;5052216;28;45508;-70
2022/03/14 05:04:29;;;;;;;;;6.00;4.00;;;;;8.69;67.03;101880.88;5038190;28;45489;-68
2022/03/14 05:06:55;;;;;;;;;5.67;4.67;;;;;8.72;66.96;101891.25;5037584;28;45542;-68
2022/03/14 05:09:21;;;;;;;;;6.00;6.00;;;;;8.64;67.25;101890.94;5037180;28;46477;-69
2022/03/14 05:11:47;;;;;;;;;6.33;6.33;;;;;8.66;67.06;101889.88;5054785;28;45485;-69
2022/03/14 05:14:13;;;;;;;;;5.33;4.33;;;;;8.43;66.71;101864.94;5057542;28;45285;-69
2022/03/14 05:16:38;;;;;;;;;5.00;4.00;;;;;8.45;67.46;101872.78;5042778;28;45525;-69
2022/03/14 05:19:03;;;;;;;;;5.33;5.00;;;;;8.68;67.05;101919.78;5035855;28;46902;-70
2022/03/14 05:21:29;;;;;;;;;7.00;6.00;;;;;8.64;66.59;101925.41;5036305;28;46198;-69
2022/03/14 05:23:54;;;;;;;;;5.67;5.67;;;;;8.48;67.04;101907.03;5036559;28;45639;-69
2022/03/14 05:26:20;;;;;;;;;5.00;5.00;;;;;8.64;67.23;101920.97;5048216;28;45466;-69
2022/03/14 05:28:45;;;;;;;;;6.00;6.00;;;;;8.61;66.65;101925.59;5056448;28;45817;-69
2022/03/14 05:31:10;;;;;;;;;10.00;10.00;;;;;8.57;66.61;101921.44;5039778;28;45514;-70
2022/03/14 05:33:36;;;;;;;;;6.67;6.33;;;;;8.27;67.14;101884.56;5055809;28;45190;-69
2022/03/14 05:36:02;;;;;;;;;7.67;5.67;;;;;8.54;67.67;101935.75;5049545;28;45279;-69
2022/03/14 05:38:28;;;;;;;;;7.00;4.00;;;;;8.39;67.26;101912.91;5036764;28;45981;-68
2022/03/14 05:40:55;;;;;;;;;12.00;6.67;;;;;8.45;67.09;101920.47;5043165;28;45637;-68
2022/03/14 05:43:21;;;;;;;;;4.00;4.00;;;;;8.32;67.54;101901.84;5056992;28;45435;-68
2022/03/14 05:45:47;;;;;;;;;7.33;6.00;;;;;8.51;67.05;101944.78;5045440;28;46268;-68
2022/03/14 05:48:12;;;;;;;;;6.00;4.67;;;;;7.97;67.05;101860.91;5043616;28;46725;-69
2022/03/14 05:50:37;;;;;;;;;5.00;5.00;;;;;7.81;67.50;101845.22;5051041;28;45618;-68
2022/03/14 05:53:03;;;;;;;;;5.67;5.33;;;;;8.27;68.25;101926.97;5035530;28;45613;-68
2022/03/14 05:55:29;;;;;;;;;6.33;5.67;;;;;8.35;67.93;101941.41;5036857;28;45445;-70
2022/03/14 05:57:55;;;;;;;;;4.67;4.67;;;;;8.16;67.90;101923.19;5045376;28;48824;-69
2022/03/14 06:00:24;;;;;;;;;6.00;6.00;;;;;8.23;67.89;101947.50;5047137;28;45743;-69
2022/03/14 06:02:51;;;;;;;;;7.00;6.00;;;;;8.28;67.89;101952.50;5056661;28;45512;-70
2022/03/14 06:05:21;;;;;;;;;5.67;5.67;;;;;8.27;67.60;101945.50;5054914;28;45605;-69
2022/03/14 06:07:47;;;;;;;;;4.33;3.67;;;;;8.34;67.76;101968.88;5045409;28;45808;-67
2022/03/14 06:10:15;;;;;;;;;7.33;6.67;;;;;7.80;67.83;101880.53;5034830;28;45746;-68
2022/03/14 06:12:41;;;;;;;;;7.00;6.00;;;;;8.15;68.30;101936.53;5036993;28;45335;-67
2022/03/14 06:15:09;;;;;;;;;6.00;5.00;;;;;8.37;67.56;101970.47;5039953;28;45505;-69
2022/03/14 06:17:35;;;;;;;;;5.00;4.33;;;;;8.46;67.59;101972.53;5018486;28;48574;-69
2022/03/14 06:20:00;;;;;;;;;7.33;7.33;;;;;7.95;67.03;101884.84;5020956;28;45325;-70
2022/03/14 06:22:26;;;;;;;;;7.00;6.00;;;;;8.35;67.29;101951.16;5040507;28;45448;-69
2022/03/14 06:24:51;;;;;;;;;6.33;6.33;;;;;8.50;66.92;101971.38;5040078;28;45203;-68
2022/03/14 06:27:19;;;;;;;;;8.00;7.00;;;;;8.59;67.15;101981.38;5057886;28;45931;-70
2022/03/14 06:29:45;;;;;;;;;9.00;7.33;;;;;8.36;66.82;101942.28;5050155;28;45353;-69
2022/03/14 06:32:11;;;;;;;;;6.00;6.00;;;;;8.65;66.54;101991.59;5034835;28;45343;-71
2022/03/14 06:34:40;;;;;;;;;9.00;6.33;;;;;8.64;66.46;101987.22;5019895;28;45424;-70
2022/03/14 06:37:09;;;;;;;;;8.00;7.00;;;;;8.51;66.17;101973.94;5048417;28;46206;-70
2022/03/14 06:39:38;;;;;;;;;10.33;6.00;;;;;8.76;66.43;102026.19;5039742;28;45457;-70
2022/03/14 06:42:09;;;;;;;;;6.00;6.00;;;;;8.65;66.55;102012.78;5039481;28;45492;-69
2022/03/14 06:44:38;;;;;;;;;6.67;5.67;;;;;8.76;66.52;102031.47;5056687;28;45522;-73
2022/03/14 06:47:04;;;;;;;;;4.67;4.67;;;;;8.66;66.12;102006.53;5058923;28;45884;-71
2022/03/14 06:49:30;;;;;;;;;8.00;5.00;;;;;8.88;66.10;102048.41;5054751;28;45250;-70
2022/03/14 06:51:55;;;;;;;;;8.00;8.00;;;;;8.96;66.32;102053.19;5056204;28;45207;-70
2022/03/14 06:54:21;;;;;;;;;7.67;7.00;;;;;8.90;65.63;102043.00;5039461;28;45373;-76
2022/03/14 06:56:47;;;;;;;;;11.33;7.33;;;;;8.94;65.61;102058.59;5053947;28;45875;-74
2022/03/14 06:59:12;;;;;;;;;7.00;5.67;;;;;9.04;65.31;102072.13;5042909;28;45650;-67
2022/03/14 07:01:38;;;;;;;;;9.00;8.00;;;;;9.08;65.55;102073.59;5040189;28;45549;-70
2022/03/14 07:04:03;;;;;;;;;7.33;6.67;;;;;8.96;65.23;102053.19;5039404;28;45325;-70
2022/03/14 07:06:29;;;;;;;;;7.67;5.67;;;;;9.13;65.12;102084.75;5054137;28;47678;-72
2022/03/14 07:08:54;;;;;;;;;12.67;11.67;;;;;8.73;65.29;102025.53;5056834;28;45904;-71
2022/03/14 07:11:20;;;;;;;;;5.67;5.67;;;;;9.12;65.09;102093.66;5039100;28;45528;-70
2022/03/14 07:13:45;;;;;;;;;9.67;9.00;;;;;9.17;64.64;102099.50;5037916;28;45304;-70
2022/03/14 07:16:10;;;;;;;;;6.00;5.00;;;;;9.21;64.67;102093.06;5041403;28;46881;-72
2022/03/14 07:18:37;;;;;;;;;7.67;6.33;;;;;9.33;64.65;102105.50;5055794;28;45313;-70
2022/03/14 07:21:03;;;;;;;;;8.33;7.00;;;;;9.44;64.38;102112.75;5037468;28;45208;-76
2022/03/14 07:23:29;;;;;;;;;8.00;8.00;;;;;9.58;63.73;102115.31;5048799;28;45467;-79
2022/03/14 07:25:54;;;;;;;;;8.00;8.00;;;;;9.46;63.81;102073.69;5047765;28;48352;-83
2022/03/14 07:28:20;;;;;;;;;9.33;9.00;;;;;9.62;63.01;102052.25;5043711;28;45363;-70
2022/03/14 07:30:45;;;;;;;;;8.67;7.33;;;;;10.25;61.57;102059.34;5051117;28;45426;-70
2022/03/14 07:33:11;;;;;;;;;11.00;9.00;;;;;11.15;59.61;102093.47;5035421;28;45398;-73
2022/03/14 07:35:37;;;;;;;;;9.00;9.00;;;;;11.87;57.24;102083.50;5036016;28;47819;-69
2022/03/14 07:38:04;;;;;;;;;9.00;7.67;;;;;13.13;54.50;102113.41;5037413;28;45431;-71
2022/03/14 07:40:30;;;;;;;;;8.33;8.33;;;;;13.56;51.79;102060.75;5037858;28;45423;-70
2022/03/14 07:42:59;;;;;;;;;7.33;6.33;;;;;13.96;50.70;102126.84;5038460;28;45667;-74
2022/03/14 07:45:26;;;;;;;;;7.00;7.00;;;;;13.74;50.70;102149.22;5036976;28;48520;-70
2022/03/14 07:47:54;;;;;;;;;13.00;10.00;;;;;13.62;51.07;102153.78;5038513;28;45582;-69
2022/03/14 07:50:19;;;;;;;;;11.33;8.00;;;;;13.79;51.45;102156.84;5038721;28;45379;-74
2022/03/14 07:52:46;;;;;;;;;7.00;7.00;;;;;13.96;50.63;102161.59;5038696;28;45315;-71
2022/03/14 07:55:15;;;;;;;;;8.33;8.33;;;;;13.57;50.67;102129.25;5038502;28;46075;-71
2022/03/14 07:57:42;;;;;;;;;11.00;8.00;;;;;13.48;51.33;102167.44;5037070;28;45475;-69
2022/03/14 08:00:12;;;;;;;;;8.67;7.67;;;;;13.64;50.95;102164.34;5038495;28;45261;-71
2022/03/14 08:02:38;;;;;;;;;6.33;3.67;;;;;14.57;50.15;102173.19;5035421;28;45310;-70
2022/03/14 08:05:05;;;;;;;;;10.00;9.00;;;;;16.06;46.47;102172.06;5036867;28;47199;-70
2022/03/14 08:07:31;;;;;;;;;8.33;7.67;;;;;17.12;43.64;102167.22;5038151;28;45375;-73
2022/03/14 08:09:56;;;;;;;;;15.00;11.67;;;;;18.06;41.71;102171.09;5038205;28;45442;-69
2022/03/14 08:12:22;;;;;;;;;12.33;7.33;;;;;18.28;40.97;102147.34;5038425;28;45418;-69
2022/03/14 08:14:49;;;;;;;;;9.67;9.67;;;;;18.76;40.24;102165.59;5036888;28;47337;-71
2022/03/14 08:17:16;;;;;;;;;10.33;6.67;;;;;19.15;39.27;102147.81;5037951;28;45271;-71
2022/03/14 08:19:41;;;;;;;;;10.33;8.67;;;;;19.55;38.49;102157.00;5038099;28;45513;-70
2022/03/14 08:22:07;;;;;;;;;9.00;8.00;;;;;19.66;38.11;102132.38;5038301;28;45556;-71
2022/03/14 08:24:33;;;;;;;;;5.00;5.00;;;;;20.20;37.15;102156.91;5037937;28;45498;-69
2022/03/14 08:26:58;;;;;;;;;8.00;8.00;;;;;20.23;35.95;102099.88;5037506;28;45512;-70
2022/03/14 08:29:24;;;;;;;;;8.00;6.33;;;;;21.55;35.70;102161.16;5038029;28;45334;-69
2022/03/14 08:31:49;;;;;;;;;6.33;4.67;;;;;22.52;33.86;102186.44;5051248;28;45375;-70
2022/03/14 08:34:15;;;;;;;;;8.67;7.33;;;;;22.95;32.41;102176.59;5056396;28;47469;-69
2022/03/14 08:36:40;;;;;;;;;5.00;5.00;;;;;22.66;31.43;102158.50;5056243;28;45305;-73
2022/03/14 08:39:10;;;;;;;;;7.33;6.33;;;;;22.27;33.17;102190.47;5058194;28;45414;-70
2022/03/14 08:41:36;;;;;;;;;9.00;7.00;;;;;22.14;33.14;102191.94;5055580;28;45425;-71
2022/03/14 08:44:09;;;;;;;;;5.00;5.00;;;;;22.31;33.01;102197.19;5057802;28;45510;-71
2022/03/14 08:46:34;;;;;;;;;9.67;9.00;;;;;22.94;32.37;102193.91;5057694;28;45425;-71
2022/03/14 08:49:01;;;;;;;;;13.00;10.00;;;;;23.49;31.30;102189.69;5056695;28;45397;-70
2022/03/14 08:51:27;;;;;;;;;5.33;5.33;;;;;24.00;30.64;102207.72;5057664;28;45298;-70
2022/03/14 08:53:53;;;;;;;;;9.33;7.67;;;;;24.05;30.41;102208.81;5057330;28;46049;-70
2022/03/14 08:56:19;;;;;;;;;9.00;9.00;;;;;23.75;30.75;102204.59;5057345;28;45167;-72
2022/03/14 08:58:48;;;;;;;;;7.67;7.67;;;;;23.19;30.93;102209.81;5057627;28;45228;-71
2022/03/14 09:01:13;;;;;;;;;5.33;4.33;;;;;22.77;31.24;102203.25;5057710;28;45365;-70
2022/03/14 09:03:39;;;;;;;;;8.00;8.00;;;;;22.49;31.96;102211.22;5057517;28;46418;-70
2022/03/14 09:06:05;;;;;;;;;12.00;9.67;;;;;22.69;32.14;102196.06;5056143;28;45453;-70
2022/03/14 09:08:34;;;;;;;;;10.00;9.00;;;;;23.14;31.27;102168.88;5057389;28;45401;-71
2022/03/14 09:11:03;;;;;;;;;7.67;6.00;;;;;23.24;31.26;102223.69;5047834;28;45612;-71
2022/03/14 09:13:29;;;;;;;;;8.67;7.67;;;;;22.99;31.30;102224.00;5036959;28;46539;-71
2022/03/14 09:15:55;;;;;;;;;5.33;5.33;;;;;22.52;31.67;102148.50;5035746;28;45518;-71
2022/03/14 09:18:21;;;;;;;;;6.00;6.00;;;;;22.91;31.24;102141.91;5035947;28;45453;-71
2022/03/14 09:20:49;;;;;;;;;8.67;7.00;;;;;23.18;31.27;102198.13;5037371;28;45268;-70
2022/03/14 09:23:18;;;;;;;;;12.00;9.67;;;;;22.63;31.75;102221.22;5046027;28;47368;-71
2022/03/14 09:25:44;;;;;;;;;11.67;9.00;;;;;22.24;32.80;102231.47;5057441;28;45326;-70
2022/03/14 09:28:09;;;;;;;;;9.67;8.00;;;;;21.89;33.04;102231.09;5057043;28;45804;-70
2022/03/14 09:30:35;;;;;;;;;8.67;8.67;;;;;21.95;33.34;102227.63;5057520;28;45517;-70
2022/03/14 09:33:00;;;;;;;;;10.67;9.33;;;;;21.78;33.03;102221.50;5057220;28;45522;-72
2022/03/14 09:35:26;;;;;;;;;6.33;6.33;;;;;22.19;32.88;102214.91;5056142;28;45398;-73
2022/03/14 09:37:51;;;;;;;;;11.00;9.00;;;;;23.42;32.08;102242.22;5057300;28;45453;-71
2022/03/14 09:40:19;;;;;;;;;8.67;8.67;;;;;24.53;30.04;102223.38;5056228;28;45428;-71
2022/03/14 09:42:51;;;;;;;;;11.67;11.67;;;;;25.42;28.38;102247.81;5056875;28;45367;-69
2022/03/14 09:45:19;;;;;;;;;11.33;9.33;;;;;25.81;27.57;102147.31;5055796;28;45356;-70
2022/03/14 09:47:49;;;;;;;;;9.67;9.67;;;;;26.83;25.83;102223.91;5055656;28;45383;-70
2022/03/14 09:50:23;;;;;;;;;7.33;7.33;;;;;27.52;25.90;102223.13;5056430;28;45505;-71
2022/03/14 09:52:49;;;;;;;;;13.00;12.00;;;;;28.07;24.09;102237.03;5048764;28;48301;-71
2022/03/14 09:55:14;;;;;;;;;9.67;9.67;;;;;27.77;24.19;102230.56;5036820;28;45435;-70
2022/03/14 09:57:40;;;;;;;;;6.00;6.00;;;;;27.22;25.04;102219.31;5036743;28;45482;-69
2022/03/14 10:00:15;;;;;;;;;11.33;8.67;;;;;26.33;26.04;102212.69;5036846;28;45458;-70
2022/03/14 10:02:42;;;;;;;;;10.67;9.67;;;;;25.65;27.24;102220.25;5034965;28;48154;-71
2022/03/14 10:05:09;;;;;;;;;10.00;8.00;;;;;24.81;28.11;102157.19;5046500;28;45477;-73
2022/03/14 10:07:35;;;;;;;;;12.33;11.33;;;;;24.60;28.19;102255.19;5056693;28;45349;-71
2022/03/14 10:10:01;;;;;;;;;8.67;8.67;;;;;22.98;29.92;102121.13;5056919;28;45479;-71
2022/03/14 10:12:27;;;;;;;;;12.33;10.67;;;;;23.20;30.99;102261.19;5041911;28;45499;-71
2022/03/14 10:14:52;;;;;;;;;11.00;9.67;;;;;22.69;32.22;102255.72;5050403;28;45798;-68
2022/03/14 10:17:18;;;;;;;;;10.00;8.33;;;;;22.06;32.75;102229.13;5036963;28;45552;-71
2022/03/14 10:19:55;;;;;;;;;10.33;9.00;;;;;21.43;33.85;102217.56;5056844;28;45279;-71
2022/03/14 10:22:20;;;;;;;;;9.67;9.00;;;;;20.58;34.89;102170.66;5056768;28;46787;-70
2022/03/14 10:24:47;;;;;;;;;12.00;10.50;;;;;20.46;35.71;102239.63;5056414;28;45494;-72
2022/03/14 10:27:19;;;;;;;;;9.67;9.00;;;;;20.17;36.17;102254.47;5038207;28;45466;-71
2022/03/14 10:29:47;;;;;;;;;11.33;9.67;;;;;19.49;37.22;102267.41;5036358;28;45430;-70
2022/03/14 10:32:36;;;;;;;;;11.67;10.67;;;;;18.96;38.82;102266.72;5036213;28;45548;-69
2022/03/14 10:35:07;;;;;;;;;9.33;9.33;;;;;18.53;39.16;102276.56;5035922;28;45536;-71
2022/03/14 10:37:35;;;;;;;;;9.33;7.67;;;;;17.99;40.39;102268.75;5036490;28;45472;-69
2022/03/14 10:40:08;;;;;;;;;10.33;7.67;;;;;17.66;41.29;102273.81;5034996;28;45380;-70
2022/03/14 10:42:42;;;;;;;;;10.33;10.33;;;;;17.38;41.49;102266.78;5034686;28;47828;-70
2022/03/14 10:45:20;;;;;;;;;8.00;8.00;;;;;16.98;42.77;102254.56;5034683;28;45532;-71
2022/03/14 10:47:51;;;;;;;;;10.00;8.00;;;;;16.80;43.81;102267.06;5036022;28;45191;-71
2022/03/14 10:50:38;;;;;;;;;15.00;10.00;;;;;16.54;44.05;102264.19;5036500;28;46083;-68
2022/03/14 10:53:29;;;;;;;;;6.00;6.00;;;;;16.01;45.21;102244.06;5034306;28;46888;-71
2022/03/14 10:56:00;;;;;;;;;11.00;7.33;;;;;16.05;45.57;102256.22;5034762;28;45476;-70
2022/03/14 10:58:34;;;;;;;;;10.00;8.00;;;;;15.86;46.04;102245.53;5036021;28;45278;-71
2022/03/14 11:01:10;;;;;;;;;9.33;8.67;;;;;15.63;46.03;102254.84;5037104;28;45321;-71
2022/03/14 11:03:39;;;;;;;;;8.33;5.33;;;;;15.54;46.75;102253.78;5038804;28;45411;-69
2022/03/14 11:06:07;;;;;;;;;13.00;8.33;;;;;15.28;47.16;102224.00;5039206;28;45458;-71
2022/03/14 11:08:34;;;;;;;;;11.33;11.00;;;;;15.49;46.94;102264.94;5039040;28;45500;-70
2022/03/14 11:11:11;;;;;;;;;7.67;7.00;;;;;15.49;47.65;102272.97;5039394;28;45396;-70
2022/03/14 11:13:42;;;;;;;;;5.67;5.67;;;;;15.55;47.51;102270.72;5037994;28;46501;-70
2022/03/14 11:16:25;;;;;;;;;5.00;5.00;;;;;15.44;46.74;102235.03;5039066;28;45516;-70
2022/03/14 11:18:52;;;;;;;;;6.67;5.67;;;;;15.33;46.05;102232.47;5048467;28;45305;-71
2022/03/14 11:21:20;;;;;;;;;5.00;4.00;;;;;15.41;45.79;102264.75;5059487;28;45355;-70
2022/03/14 11:23:47;;;;;;;;;7.67;5.00;;;;;15.35;46.25;102256.44;5059618;28;45758;-70
2022/03/14 11:26:15;;;;;;;;;11.00;8.00;;;;;15.27;47.19;102258.97;5058133;28;45396;-71
2022/03/14 11:28:42;;;;;;;;;8.00;8.00;;;;;15.24;46.79;102259.25;5059707;28;45410;-74